Time;durP1;ratioP1;P1;durP2;ratioP2;P2;SDS_P1;SDS_P2;PMS_P1;PMS_P2;Temp;Humidity;BMP_temperature;BMP_pressure;BME280_temperature;BME280_humidity;BME280_pressure;Samples;Min_cycle;Max_cycle;Signal;HPM_P1;HPM_P2
2022/01/17 00:02:07;;;;;;;;;;;5.10;99.90;;;;;;5079966;28;19920;-49
2022/01/17 00:04:33;;;;;;;;;;;5.00;99.90;;;;;;5059599;28;19939;-47
2022/01/17 00:06:59;;;;;;;;;;;5.00;99.90;;;;;;5068373;28;19927;-50
2022/01/17 00:09:26;;;;;;;;;;;5.10;99.90;;;;;;5034564;28;19924;-49
2022/01/17 00:12:05;;;;;;;;;;;5.10;99.90;;;;;;5035261;28;20403;-50
2022/01/17 00:14:38;;;;;;;;;;;5.10;99.90;;;;;;5065296;28;19927;-51
2022/01/17 00:17:27;;;;;;;;;;;5.10;99.90;;;;;;5053494;28;19916;-51
2022/01/17 00:19:55;;;;;;;;;;;5.10;99.90;;;;;;5068348;28;19989;-51
2022/01/17 00:22:21;;;;;;;;;;;5.10;99.90;;;;;;5050279;28;20012;-48
2022/01/17 00:24:48;;;;;;;;;;;5.00;99.90;;;;;;5048925;28;20382;-49
2022/01/17 00:27:14;;;;;;;;;;;5.00;99.90;;;;;;5085005;28;20382;-48
2022/01/17 00:29:54;;;;;;;;;;;5.00;99.90;;;;;;5048760;28;19969;-49
2022/01/17 00:32:19;;;;;;;;;;;5.00;99.90;;;;;;5050072;28;19989;-48
2022/01/17 00:34:46;;;;;;;;;;;4.90;99.90;;;;;;5068361;28;20422;-47
2022/01/17 00:37:13;;;;;;;;;;;5.00;99.90;;;;;;5047539;28;19932;-47
2022/01/17 00:39:39;;;;;;;;;;;4.90;99.90;;;;;;5048777;28;19978;-48
2022/01/17 00:42:05;;;;;;;;;;;4.90;99.90;;;;;;5067493;28;19948;-47
2022/01/17 00:44:31;;;;;;;;;;;4.90;99.90;;;;;;5047522;28;20536;-48
2022/01/17 00:46:57;;;;;;;;;;;4.90;99.90;;;;;;5046085;28;19936;-47
2022/01/17 00:49:22;;;;;;;;;;;4.90;99.90;;;;;;5049488;28;19969;-51
2022/01/17 00:51:48;;;;;;;;;;;5.00;99.90;;;;;;5050605;28;19968;-51
2022/01/17 00:54:14;;;;;;;;;;;4.90;99.90;;;;;;5047562;28;19955;-46
2022/01/17 00:56:40;;;;;;;;;;;4.90;99.90;;;;;;5058052;28;20015;-47
2022/01/17 00:59:06;;;;;;;;;;;4.80;99.90;;;;;;5038629;28;20046;-47
2022/01/17 01:01:32;;;;;;;;;;;4.80;99.90;;;;;;5066613;28;19955;-47
2022/01/17 01:03:57;;;;;;;;;;;4.80;99.90;;;;;;5049753;28;19916;-48
2022/01/17 01:06:23;;;;;;;;;;;4.80;99.90;;;;;;5067432;28;19924;-47
2022/01/17 01:08:49;;;;;;;;;;;4.80;99.90;;;;;;5051493;28;19916;-47
2022/01/17 01:11:15;;;;;;;;;;;4.80;99.90;;;;;;5063328;28;19916;-47
2022/01/17 01:13:40;;;;;;;;;;;4.80;99.90;;;;;;5048354;28;19971;-48
2022/01/17 01:16:23;;;;;;;;;;;4.80;99.90;;;;;;5049917;28;19923;-50
2022/01/17 01:29:59;;;;;;;;;;;4.80;99.90;;;;;;4985467;28;19925;-48
2022/01/17 01:32:38;;;;;;;;;;;4.90;99.90;;;;;;5001567;28;20027;-47
2022/01/17 01:35:09;;;;;;;;;;;4.90;99.90;;;;;;5039144;28;20000;-47
2022/01/17 01:37:35;;;;;;;;;;;4.90;99.90;;;;;;5066661;28;19916;-48
2022/01/17 01:40:00;;;;;;;;;;;4.90;99.90;;;;;;5064897;28;19920;-52
2022/01/17 01:42:30;;;;;;;;;;;4.80;99.90;;;;;;5096537;28;19967;-48
2022/01/17 01:44:56;;;;;;;;;;;4.80;99.90;;;;;;5068090;28;19924;-48
2022/01/17 01:47:22;;;;;;;;;;;4.80;99.90;;;;;;5065367;28;20386;-48
2022/01/17 01:49:48;;;;;;;;;;;4.80;99.90;;;;;;5057336;28;20106;-48
2022/01/17 01:52:14;;;;;;;;;;;4.80;99.90;;;;;;5062838;28;20011;-50
2022/01/17 01:54:40;;;;;;;;;;;4.80;99.90;;;;;;5068558;28;20061;-51
2022/01/17 01:57:06;;;;;;;;;;;4.80;99.90;;;;;;5049148;28;20275;-51
2022/01/17 01:59:32;;;;;;;;;;;4.70;99.90;;;;;;5045054;28;19916;-49
2022/01/17 02:01:58;;;;;;;;;;;4.70;99.90;;;;;;5079144;28;19957;-48
2022/01/17 02:04:24;;;;;;;;;;;4.70;99.90;;;;;;5051234;28;19931;-48
2022/01/17 02:06:50;;;;;;;;;;;4.70;99.90;;;;;;5034240;28;19924;-47
2022/01/17 02:09:16;;;;;;;;;;;4.60;99.90;;;;;;5066834;28;20382;-47
2022/01/17 02:11:42;;;;;;;;;;;4.60;99.90;;;;;;5066368;28;20605;-49
2022/01/17 02:14:07;;;;;;;;;;;4.70;99.90;;;;;;5083649;28;19920;-50
2022/01/17 02:16:37;;;;;;;;;;;4.60;99.90;;;;;;5068739;28;19928;-50
2022/01/17 02:19:03;;;;;;;;;;;4.60;99.90;;;;;;5067126;28;20010;-48
2022/01/17 02:21:34;;;;;;;;;;;4.60;99.90;;;;;;5064252;28;20316;-46
2022/01/17 02:24:00;;;;;;;;;;;4.60;99.90;;;;;;5049916;28;20416;-50
2022/01/17 02:26:27;;;;;;;;;;;4.50;99.90;;;;;;5067936;28;20294;-49
2022/01/17 02:28:53;;;;;;;;;;;4.60;99.90;;;;;;5059873;28;20310;-51
2022/01/17 02:31:19;;;;;;;;;;;;;;;;;;5047194;28;19920;-52
2022/01/17 02:33:45;;;;;;;;;;;4.50;99.90;;;;;;5067062;28;20303;-50
2022/01/17 02:36:11;;;;;;;;;;;4.50;99.90;;;;;;5068262;28;19917;-50
2022/01/17 02:38:40;;;;;;;;;;;4.50;99.90;;;;;;5071910;28;20382;-49
2022/01/17 02:41:06;;;;;;;;;;;4.50;99.90;;;;;;5071503;28;20541;-49
2022/01/17 02:43:32;;;;;;;;;;;4.50;99.90;;;;;;5069766;28;20369;-49
2022/01/17 02:48:28;;;;;;;;;;;4.50;99.90;;;;;;5071169;28;20608;-49
2022/01/17 02:50:54;;;;;;;;;;;4.60;99.90;;;;;;5090192;28;19943;-47
2022/01/17 02:53:20;;;;;;;;;;;4.50;99.90;;;;;;5053600;28;19926;-48
2022/01/17 02:55:50;;;;;;;;;;;4.50;99.90;;;;;;5056700;28;20003;-51
2022/01/17 02:58:23;;;;;;;;;;;4.60;99.90;;;;;;5070117;28;19920;-50
2022/01/17 03:00:51;;;;;;;;;;;4.50;99.90;;;;;;5088809;28;19967;-49
2022/01/17 03:03:18;;;;;;;;;;;4.60;99.90;;;;;;5085657;28;20522;-49
2022/01/17 03:05:45;;;;;;;;;;;4.50;99.90;;;;;;5053651;28;20002;-52
2022/01/17 03:08:11;;;;;;;;;;;4.50;99.90;;;;;;5087695;28;19924;-49
2022/01/17 03:10:40;;;;;;;;;;;4.60;99.90;;;;;;5071338;28;19931;-50
2022/01/17 03:13:16;;;;;;;;;;;4.60;99.90;;;;;;5049640;28;19931;-50
2022/01/17 03:16:02;;;;;;;;;;;4.60;99.90;;;;;;5062603;28;20373;-49
2022/01/17 03:18:32;;;;;;;;;;;4.60;99.90;;;;;;5068767;28;19923;-52
2022/01/17 03:20:59;;;;;;;;;;;4.70;99.90;;;;;;5086082;28;19991;-48
2022/01/17 03:23:43;;;;;;;;;;;4.70;99.90;;;;;;5053966;28;19920;-52
2022/01/17 03:26:09;;;;;;;;;;;4.70;99.90;;;;;;5070264;28;19920;-50
2022/01/17 03:28:36;;;;;;;;;;;4.00;99.90;;;;;;5037103;28;19920;-51
2022/01/17 03:31:02;;;;;;;;;;;4.80;99.90;;;;;;5073364;28;19978;-51
2022/01/17 03:33:28;;;;;;;;;;;4.80;99.90;;;;;;5051727;28;19936;-51
2022/01/17 03:35:54;;;;;;;;;;;4.90;99.90;;;;;;5066071;28;20269;-47
2022/01/17 03:38:21;;;;;;;;;;;4.90;99.90;;;;;;5068938;28;19924;-50
2022/01/17 03:40:49;;;;;;;;;;;5.00;99.90;;;;;;5052979;28;19967;-50
2022/01/17 03:43:15;;;;;;;;;;;5.00;99.90;;;;;;5071514;28;19927;-50
2022/01/17 03:45:42;;;;;;;;;;;5.00;99.90;;;;;;5068164;28;19920;-51
2022/01/17 03:48:08;;;;;;;;;;;5.00;99.90;;;;;;5068769;28;19924;-50
2022/01/17 03:50:34;;;;;;;;;;;5.10;99.90;;;;;;5083229;28;19946;-51
2022/01/17 03:53:06;;;;;;;;;;;5.00;99.90;;;;;;5068673;28;19956;-50
2022/01/17 03:55:34;;;;;;;;;;;5.10;99.90;;;;;;5064433;28;19916;-52
2022/01/17 03:58:01;;;;;;;;;;;5.10;99.90;;;;;;5068357;28;20849;-49
2022/01/17 04:00:30;;;;;;;;;;;5.00;99.90;;;;;;5069389;28;19920;-51
2022/01/17 04:02:56;;;;;;;;;;;5.00;99.90;;;;;;5068393;28;19920;-51
2022/01/17 04:05:22;;;;;;;;;;;5.00;99.90;;;;;;5032771;28;19928;-50
2022/01/17 04:07:48;;;;;;;;;;;5.00;99.90;;;;;;5050457;28;20313;-46
2022/01/17 04:10:14;;;;;;;;;;;5.00;99.90;;;;;;5064856;28;19924;-49
2022/01/17 04:12:41;;;;;;;;;;;5.00;99.90;;;;;;5057094;28;20015;-50
2022/01/17 04:15:07;;;;;;;;;;;5.10;99.90;;;;;;5052243;28;20289;-48
2022/01/17 04:17:35;;;;;;;;;;;5.10;99.90;;;;;;5049636;28;19952;-46
2022/01/17 04:20:05;;;;;;;;;;;5.10;99.90;;;;;;5067333;28;19943;-49
2022/01/17 04:22:36;;;;;;;;;;;5.20;99.90;;;;;;5068507;28;19923;-50
2022/01/17 04:25:03;;;;;;;;;;;5.20;99.90;;;;;;5082432;28;19958;-48
2022/01/17 04:27:29;;;;;;;;;;;5.20;99.90;;;;;;5085464;28;20392;-48
2022/01/17 04:29:55;;;;;;;;;;;5.20;99.90;;;;;;5070660;28;19924;-47
2022/01/17 04:32:20;;;;;;;;;;;5.20;99.90;;;;;;5068165;28;19989;-49
2022/01/17 04:34:46;;;;;;;;;;;5.30;99.90;;;;;;5069828;28;20270;-48
2022/01/17 04:37:12;;;;;;;;;;;5.30;99.90;;;;;;5064932;28;19970;-47
2022/01/17 04:39:38;;;;;;;;;;;5.40;99.90;;;;;;5068052;28;20106;-48
2022/01/17 04:42:10;;;;;;;;;;;5.30;99.90;;;;;;5082786;28;19916;-50
2022/01/17 04:47:20;;;;;;;;;;;5.40;99.90;;;;;;5084226;28;20437;-50
2022/01/17 04:49:46;;;;;;;;;;;5.40;99.90;;;;;;5050288;28;20022;-51
2022/01/17 04:52:13;;;;;;;;;;;5.50;99.90;;;;;;5062143;28;19959;-50
2022/01/17 04:54:41;;;;;;;;;;;5.50;99.90;;;;;;5032610;28;19920;-49
2022/01/17 04:57:12;;;;;;;;;;;5.50;99.90;;;;;;5050788;28;20223;-51
2022/01/17 04:59:41;;;;;;;;;;;5.50;99.90;;;;;;5048828;28;19916;-48
2022/01/17 05:02:07;;;;;;;;;;;5.50;99.90;;;;;;5067285;28;20422;-49
2022/01/17 05:04:33;;;;;;;;;;;4.80;99.90;;;;;;5050141;28;20018;-52
2022/01/17 05:06:59;;;;;;;;;;;5.50;99.90;;;;;;5049611;28;19927;-51
2022/01/17 05:09:24;;;;;;;;;;;5.60;99.90;;;;;;5067968;28;19916;-50
2022/01/17 05:11:51;;;;;;;;;;;5.60;99.90;;;;;;5067261;28;19920;-47
2022/01/17 05:14:17;;;;;;;;;;;5.60;99.90;;;;;;5049866;28;19922;-51
2022/01/17 05:16:54;;;;;;;;;;;5.60;99.90;;;;;;5032141;28;19920;-51
2022/01/17 05:22:10;;;;;;;;;;;5.60;99.90;;;;;;5064190;28;19923;-47
2022/01/17 05:24:36;;;;;;;;;;;5.60;99.90;;;;;;5068289;28;20306;-50
2022/01/17 05:27:03;;;;;;;;;;;5.60;99.90;;;;;;5068463;28;19928;-51
2022/01/17 05:29:29;;;;;;;;;;;5.60;99.90;;;;;;5048109;28;20388;-47
2022/01/17 05:31:55;;;;;;;;;;;5.70;99.90;;;;;;5056825;28;20015;-51
2022/01/17 05:34:20;;;;;;;;;;;5.70;99.90;;;;;;5051770;28;19931;-50
2022/01/17 05:37:06;;;;;;;;;;;5.70;99.90;;;;;;5069801;28;20006;-49
2022/01/17 05:39:32;;;;;;;;;;;5.70;99.90;;;;;;5047027;28;19988;-47
2022/01/17 05:41:59;;;;;;;;;;;5.80;99.90;;;;;;5078325;28;20032;-52
2022/01/17 05:44:25;;;;;;;;;;;5.80;99.90;;;;;;5051634;28;19968;-51
2022/01/17 05:46:51;;;;;;;;;;;5.80;99.90;;;;;;5066453;28;19975;-50
2022/01/17 05:49:17;;;;;;;;;;;5.80;99.90;;;;;;5033389;28;19927;-51
2022/01/17 05:51:42;;;;;;;;;;;5.80;99.90;;;;;;5052986;28;19931;-48
2022/01/17 05:54:08;;;;;;;;;;;5.80;99.90;;;;;;5086759;28;19920;-52
2022/01/17 05:56:34;;;;;;;;;;;5.90;99.90;;;;;;5068113;28;19988;-48
2022/01/17 05:59:00;;;;;;;;;;;5.90;99.90;;;;;;5035181;28;20362;-51
2022/01/17 06:01:26;;;;;;;;;;;5.90;99.90;;;;;;5083877;28;19920;-48
2022/01/17 06:03:52;;;;;;;;;;;5.90;99.90;;;;;;5074230;28;19923;-46
2022/01/17 06:06:17;;;;;;;;;;;5.80;99.90;;;;;;5066099;28;19924;-51
2022/01/17 06:08:43;;;;;;;;;;;6.60;99.90;;;;;;5085046;28;19980;-49
2022/01/17 06:11:09;;;;;;;;;;;5.90;99.90;;;;;;5034844;28;20390;-51
2022/01/17 06:13:35;;;;;;;;;;;5.90;99.90;;;;;;5084145;28;19924;-51
2022/01/17 06:16:01;;;;;;;;;;;5.90;99.90;;;;;;5029862;28;20077;-48
2022/01/17 06:18:27;;;;;;;;;;;5.90;99.90;;;;;;5066610;28;20369;-50
2022/01/17 06:20:53;;;;;;;;;;;5.90;99.90;;;;;;5065996;28;19927;-50
2022/01/17 06:23:18;;;;;;;;;;;5.90;99.90;;;;;;5040133;28;19916;-48
2022/01/17 06:25:44;;;;;;;;;;;5.90;99.90;;;;;;5064025;28;19924;-50
2022/01/17 06:28:10;;;;;;;;;;;5.90;99.90;;;;;;5050448;28;19924;-51
2022/01/17 06:30:36;;;;;;;;;;;5.90;99.90;;;;;;5046577;28;20370;-47
2022/01/17 06:35:53;;;;;;;;;;;5.90;99.90;;;;;;5064275;28;20094;-50
2022/01/17 06:38:18;;;;;;;;;;;5.90;99.90;;;;;;5067896;28;20023;-48
2022/01/17 06:40:44;;;;;;;;;;;5.90;99.90;;;;;;5067643;28;19920;-50
2022/01/17 06:43:11;;;;;;;;;;;5.90;99.90;;;;;;5050703;28;19920;-48
2022/01/17 06:45:38;;;;;;;;;;;5.90;99.90;;;;;;5064524;28;19920;-48
2022/01/17 06:48:05;;;;;;;;;;;5.90;99.90;;;;;;5038789;28;19970;-50
2022/01/17 06:50:35;;;;;;;;;;;5.90;99.90;;;;;;5046722;28;20306;-53
2022/01/17 06:53:00;;;;;;;;;;;5.90;99.90;;;;;;5066825;28;19920;-50
2022/01/17 06:55:26;;;;;;;;;;;5.90;99.90;;;;;;5067063;28;19923;-50
2022/01/17 06:57:54;;;;;;;;;;;5.90;99.90;;;;;;5047559;28;20635;-52
2022/01/17 07:00:19;;;;;;;;;;;6.00;99.90;;;;;;5048888;28;20519;-53
2022/01/17 07:02:45;;;;;;;;;;;6.00;99.90;;;;;;5065371;28;19932;-49
2022/01/17 07:05:11;;;;;;;;;;;6.00;99.90;;;;;;5050419;28;19978;-50
2022/01/17 07:07:36;;;;;;;;;;;6.00;99.90;;;;;;5047972;28;20358;-50
2022/01/17 07:10:03;;;;;;;;;;;6.00;99.90;;;;;;5064912;28;19920;-51
2022/01/17 07:12:29;;;;;;;;;;;6.00;99.90;;;;;;5047996;28;20255;-50
2022/01/17 07:14:55;;;;;;;;;;;6.00;99.90;;;;;;5054822;28;19986;-50
2022/01/17 07:17:20;;;;;;;;;;;6.00;99.90;;;;;;5066390;28;20046;-50
2022/01/17 07:19:46;;;;;;;;;;;6.00;99.90;;;;;;5052268;28;20539;-51
2022/01/17 07:22:12;;;;;;;;;;;6.00;99.90;;;;;;5054130;28;19931;-50
2022/01/17 07:24:38;;;;;;;;;;;6.10;99.90;;;;;;5051643;28;19924;-52
2022/01/17 07:27:04;;;;;;;;;;;6.10;99.90;;;;;;5045809;28;20449;-51
2022/01/17 07:29:30;;;;;;;;;;;6.10;99.90;;;;;;5034190;28;20197;-50
2022/01/17 07:31:57;;;;;;;;;;;6.10;99.90;;;;;;5065432;28;19928;-51
2022/01/17 07:34:23;;;;;;;;;;;6.20;99.90;;;;;;5049094;28;20016;-52
2022/01/17 07:36:49;;;;;;;;;;;6.20;99.90;;;;;;5066861;28;19925;-51
2022/01/17 07:39:15;;;;;;;;;;;6.20;99.90;;;;;;5071776;28;19924;-50
2022/01/17 07:41:41;;;;;;;;;;;6.20;99.90;;;;;;5069364;28;19947;-52
2022/01/17 07:44:17;;;;;;;;;;;6.20;99.90;;;;;;5068610;28;19970;-51
2022/01/17 07:47:18;;;;;;;;;;;6.30;99.90;;;;;;5065501;28;19982;-50
2022/01/17 07:49:35;;;;;;;;;;;6.30;99.90;;;;;;5066032;28;19931;-49
2022/01/17 07:52:03;;;;;;;;;;;6.30;99.90;;;;;;5033906;28;19925;-48
2022/01/17 07:54:30;;;;;;;;;;;6.40;99.90;;;;;;5083296;28;19950;-51
2022/01/17 07:56:57;;;;;;;;;;;6.40;99.90;;;;;;5062720;28;19959;-52
2022/01/17 07:59:23;;;;;;;;;;;6.40;99.90;;;;;;5082494;28;19931;-47
2022/01/17 08:01:49;;;;;;;;;;;6.40;99.90;;;;;;5068844;28;20032;-47
2022/01/17 08:04:15;;;;;;;;;;;6.40;99.90;;;;;;5050326;28;19916;-52
2022/01/17 08:06:41;;;;;;;;;;;6.50;99.90;;;;;;5066866;28;20274;-48
2022/01/17 08:09:09;;;;;;;;;;;6.50;99.90;;;;;;5068301;28;20053;-48
2022/01/17 08:11:35;;;;;;;;;;;6.50;99.90;;;;;;5069204;28;20413;-48
2022/01/17 08:14:01;;;;;;;;;;;6.60;99.90;;;;;;5050175;28;19924;-49
2022/01/17 08:16:27;;;;;;;;;;;6.60;99.90;;;;;;5065101;28;19992;-48
2022/01/17 08:18:52;;;;;;;;;;;6.60;99.90;;;;;;5019068;28;20568;-48
2022/01/17 08:21:43;;;;;;;;;;;6.60;99.90;;;;;;5071580;28;19922;-49
2022/01/17 08:24:09;;;;;;;;;;;6.70;99.90;;;;;;5068203;28;19923;-48
2022/01/17 08:26:37;;;;;;;;;;;6.70;99.90;;;;;;5046681;28;19920;-48
2022/01/17 08:29:02;;;;;;;;;;;6.80;99.90;;;;;;5064558;28;20109;-50
2022/01/17 08:31:29;;;;;;;;;;;6.80;99.90;;;;;;5047215;28;21553;-50
2022/01/17 08:33:54;;;;;;;;;;;6.80;99.90;;;;;;5067116;28;19999;-53
2022/01/17 08:36:20;;;;;;;;;;;7.00;99.90;;;;;;5051431;28;20058;-48
2022/01/17 08:38:46;;;;;;;;;;;6.80;99.90;;;;;;5067368;28;19917;-52
2022/01/17 08:41:12;;;;;;;;;;;6.90;99.90;;;;;;5065173;28;19924;-47
2022/01/17 08:43:38;;;;;;;;;;;6.90;99.90;;;;;;5049998;28;19951;-49
2022/01/17 08:46:06;;;;;;;;;;;7.00;99.90;;;;;;5069861;28;19943;-48
2022/01/17 08:48:37;;;;;;;;;;;7.00;99.90;;;;;;5063222;28;19924;-46
2022/01/17 08:51:03;;;;;;;;;;;7.10;99.90;;;;;;5066295;28;19932;-50
2022/01/17 08:53:29;;;;;;;;;;;7.10;99.90;;;;;;5050783;28;19928;-48
2022/01/17 08:55:54;;;;;;;;;;;7.20;99.90;;;;;;5050404;28;19923;-49
2022/01/17 08:58:20;;;;;;;;;;;7.20;99.90;;;;;;5048993;28;19931;-48
2022/01/17 09:00:46;;;;;;;;;;;7.30;99.90;;;;;;5070951;28;20344;-50
2022/01/17 09:03:13;;;;;;;;;;;7.30;99.90;;;;;;5071388;28;20400;-50
2022/01/17 09:05:39;;;;;;;;;;;7.40;99.90;;;;;;5049361;28;19929;-49
2022/01/17 09:08:05;;;;;;;;;;;7.50;99.90;;;;;;5067485;28;20318;-51
2022/01/17 09:10:31;;;;;;;;;;;7.50;99.90;;;;;;5065837;28;19939;-51
2022/01/17 09:12:57;;;;;;;;;;;7.50;99.90;;;;;;5051618;28;20307;-49
2022/01/17 09:15:23;;;;;;;;;;;7.60;99.90;;;;;;5050654;28;19920;-51
2022/01/17 09:17:49;;;;;;;;;;;7.60;99.90;;;;;;5025830;28;19917;-51
2022/01/17 09:20:15;;;;;;;;;;;7.70;99.90;;;;;;5066928;28;19930;-52
2022/01/17 09:22:41;;;;;;;;;;;7.70;99.90;;;;;;5055786;28;19985;-49
2022/01/17 09:25:07;;;;;;;;;;;7.70;99.90;;;;;;5052086;28;19916;-54
2022/01/17 09:27:36;;;;;;;;;;;7.80;99.90;;;;;;5031874;28;20377;-50
2022/01/17 09:30:07;;;;;;;;;;;7.80;99.90;;;;;;5065637;28;19920;-54
2022/01/17 09:32:32;;;;;;;;;;;7.80;99.90;;;;;;5048458;28;19975;-52
2022/01/17 09:34:59;;;;;;;;;;;7.90;99.90;;;;;;5051825;28;19963;-50
2022/01/17 09:37:25;;;;;;;;;;;7.90;99.90;;;;;;5066257;28;20045;-50
2022/01/17 09:39:51;;;;;;;;;;;7.90;99.90;;;;;;5065157;28;19917;-50
2022/01/17 09:42:17;;;;;;;;;;;7.90;99.90;;;;;;5064798;28;19922;-48
2022/01/17 09:44:43;;;;;;;;;;;7.90;99.90;;;;;;5052470;28;20327;-49
2022/01/17 09:47:10;;;;;;;;;;;7.90;99.90;;;;;;5060111;28;20383;-47
2022/01/17 09:49:55;;;;;;;;;;;7.90;99.90;;;;;;5067324;28;20390;-52
2022/01/17 09:52:34;;;;;;;;;;;8.00;99.90;;;;;;5066736;28;19958;-47
2022/01/17 09:55:11;;;;;;;;;;;8.00;99.90;;;;;;5030893;28;19920;-49
2022/01/17 09:57:39;;;;;;;;;;;8.10;99.90;;;;;;5050461;28;19987;-53
2022/01/17 10:00:06;;;;;;;;;;;8.10;99.90;;;;;;5060575;28;19947;-48
2022/01/17 10:02:32;;;;;;;;;;;8.20;99.90;;;;;;5046635;28;19927;-51
2022/01/17 10:04:59;;;;;;;;;;;8.30;99.90;;;;;;5065430;28;20262;-50
2022/01/17 10:07:45;;;;;;;;;;;8.30;99.90;;;;;;5053236;28;19924;-53
2022/01/17 10:10:10;;;;;;;;;;;8.30;99.90;;;;;;5051513;28;20283;-52
2022/01/17 10:12:38;;;;;;;;;;;8.30;99.90;;;;;;5049943;28;19923;-49
2022/01/17 10:15:07;;;;;;;;;;;8.30;99.90;;;;;;5049225;28;19920;-48
2022/01/17 10:17:43;;;;;;;;;;;8.30;99.90;;;;;;5051748;28;19970;-50
2022/01/17 10:20:11;;;;;;;;;;;8.30;99.90;;;;;;5049633;28;19917;-48
2022/01/17 10:22:48;;;;;;;;;;;8.40;99.90;;;;;;5048663;28;19951;-49
2022/01/17 10:28:11;;;;;;;;;;;8.50;99.90;;;;;;5046140;28;19928;-48
2022/01/17 10:34:52;;;;;;;;;;;8.50;99.90;;;;;;5058879;28;20463;-48
2022/01/17 10:36:23;;;;;;;;;;;8.50;99.90;;;;;;5067548;28;19920;-49
2022/01/17 10:39:06;;;;;;;;;;;8.50;99.90;;;;;;5051781;28;20406;-54
2022/01/17 10:41:32;;;;;;;;;;;8.50;99.90;;;;;;5064735;28;20335;-52
2022/01/17 10:43:58;;;;;;;;;;;8.50;99.90;;;;;;5069842;28;20015;-53
2022/01/17 10:46:23;;;;;;;;;;;8.60;99.90;;;;;;5065357;28;20087;-51
2022/01/17 10:48:51;;;;;;;;;;;8.60;99.90;;;;;;5054132;28;19916;-49
2022/01/17 10:51:25;;;;;;;;;;;8.60;99.90;;;;;;5066199;28;20019;-50
2022/01/17 10:53:52;;;;;;;;;;;8.60;99.90;;;;;;5083576;28;19916;-50
2022/01/17 10:56:22;;;;;;;;;;;8.60;99.90;;;;;;5066005;28;19925;-47
2022/01/17 10:58:48;;;;;;;;;;;8.70;99.90;;;;;;5068646;28;19943;-52
2022/01/17 11:01:16;;;;;;;;;;;8.70;99.90;;;;;;5054044;28;20470;-47
2022/01/17 11:03:42;;;;;;;;;;;8.70;99.90;;;;;;5073535;28;19970;-50
2022/01/17 11:06:14;;;;;;;;;;;8.70;99.90;;;;;;5071045;28;19935;-52
2022/01/17 11:08:41;;;;;;;;;;;8.80;99.90;;;;;;5071288;28;20394;-52
2022/01/17 11:11:08;;;;;;;;;;;8.80;99.90;;;;;;5037416;28;20031;-50
2022/01/17 11:13:35;;;;;;;;;;;8.80;99.90;;;;;;5068086;28;19920;-51
2022/01/17 11:16:08;;;;;;;;;;;8.80;99.90;;;;;;5056170;28;19924;-50
2022/01/17 11:18:58;;;;;;;;;;;8.70;99.90;;;;;;5072428;28;19936;-49
2022/01/17 11:21:46;;;;;;;;;;;8.80;99.90;;;;;;5070606;28;20076;-54
2022/01/17 11:24:12;;;;;;;;;;;8.80;99.90;;;;;;5071002;28;20317;-52
2022/01/17 11:26:38;;;;;;;;;;;8.70;99.90;;;;;;5055907;28;19931;-53
2022/01/17 11:29:05;;;;;;;;;;;8.70;99.90;;;;;;5070622;28;19925;-49
2022/01/17 11:31:30;;;;;;;;;;;8.70;99.90;;;;;;5074321;28;19924;-50
2022/01/17 11:33:56;;;;;;;;;;;8.70;99.90;;;;;;5078520;28;19954;-52
2022/01/17 11:36:22;;;;;;;;;;;8.70;99.90;;;;;;5075660;28;19973;-54
2022/01/17 11:38:49;;;;;;;;;;;8.80;99.90;;;;;;5076977;28;20425;-51
2022/01/17 11:41:23;;;;;;;;;;;8.70;99.90;;;;;;5092601;28;19916;-49
2022/01/17 11:43:59;;;;;;;;;;;8.80;99.90;;;;;;5091014;28;19920;-50
2022/01/17 11:46:27;;;;;;;;;;;8.90;99.90;;;;;;5076111;28;19931;-49
2022/01/17 11:48:58;;;;;;;;;;;8.90;99.90;;;;;;5059761;28;20281;-52
2022/01/17 11:51:35;;;;;;;;;;;8.90;99.90;;;;;;5088289;28;19923;-51
2022/01/17 11:54:08;;;;;;;;;;;8.90;99.90;;;;;;5056497;28;19920;-50
2022/01/17 11:56:37;;;;;;;;;;;8.90;99.90;;;;;;5068966;28;19984;-53
2022/01/17 11:59:21;;;;;;;;;;;9.00;99.90;;;;;;5088667;28;20250;-50
2022/01/17 12:02:20;;;;;;;;;;;8.90;99.90;;;;;;5085453;28;19916;-53
2022/01/17 12:05:07;;;;;;;;;;;8.90;99.90;;;;;;5053899;28;19963;-53
2022/01/17 12:07:39;;;;;;;;;;;9.00;99.90;;;;;;5068864;28;19924;-53
2022/01/17 12:10:12;;;;;;;;;;;9.00;99.90;;;;;;5071624;28;19916;-51
2022/01/17 12:12:38;;;;;;;;;;;9.00;99.90;;;;;;5076653;28;19946;-52
2022/01/17 12:15:10;;;;;;;;;;;8.90;99.90;;;;;;5075863;28;19920;-51
2022/01/17 12:17:36;;;;;;;;;;;8.90;99.90;;;;;;5089001;28;20006;-51
2022/01/17 12:20:09;;;;;;;;;;;8.90;99.90;;;;;;5091159;28;20006;-51
2022/01/17 12:22:38;;;;;;;;;;;8.80;99.90;;;;;;5073965;28;19936;-50
2022/01/17 12:25:26;;;;;;;;;;;8.80;99.90;;;;;;5079377;28;19916;-51
2022/01/17 12:28:04;;;;;;;;;;;8.70;99.90;;;;;;5088367;28;19920;-51
2022/01/17 12:30:47;;;;;;;;;;;8.70;99.90;;;;;;5086669;28;19938;-52
2022/01/17 12:33:34;;;;;;;;;;;8.60;99.90;;;;;;5073113;28;20011;-52
2022/01/17 12:36:06;;;;;;;;;;;8.60;99.90;;;;;;5066512;28;19999;-50
2022/01/17 12:38:47;;;;;;;;;;;8.60;99.90;;;;;;5035405;28;19921;-51
2022/01/17 12:41:32;;;;;;;;;;;8.60;99.90;;;;;;5049303;28;19966;-48
2022/01/17 12:43:58;;;;;;;;;;;8.60;99.90;;;;;;5067415;28;19926;-51
2022/01/17 12:46:25;;;;;;;;;;;8.60;99.90;;;;;;5048733;28;20009;-52
2022/01/17 12:48:52;;;;;;;;;;;8.60;99.90;;;;;;5048712;28;19929;-52
2022/01/17 12:51:18;;;;;;;;;;;8.60;99.90;;;;;;5051138;28;19917;-48
2022/01/17 12:53:50;;;;;;;;;;;8.70;99.90;;;;;;5064863;28;19923;-53
2022/01/17 12:56:17;;;;;;;;;;;8.70;99.90;;;;;;5065758;28;19920;-48
2022/01/17 12:58:43;;;;;;;;;;;8.80;99.90;;;;;;5065462;28;19968;-48
2022/01/17 13:01:10;;;;;;;;;;;8.80;99.90;;;;;;5065369;28;19968;-52
2022/01/17 13:03:37;;;;;;;;;;;8.90;99.90;;;;;;5066324;28;19979;-51
2022/01/17 13:06:04;;;;;;;;;;;8.80;99.90;;;;;;5048394;28;19946;-50
2022/01/17 13:08:30;;;;;;;;;;;8.80;99.90;;;;;;5049330;28;19924;-50
2022/01/17 13:10:56;;;;;;;;;;;8.80;99.90;;;;;;5050381;28;19930;-52
2022/01/17 13:13:22;;;;;;;;;;;8.80;99.90;;;;;;5066469;28;20247;-49
2022/01/17 13:15:59;;;;;;;;;;;8.90;99.90;;;;;;5043164;28;19969;-52
2022/01/17 13:18:26;;;;;;;;;;;8.90;99.90;;;;;;5060787;28;19916;-53
2022/01/17 13:20:51;;;;;;;;;;;8.90;99.90;;;;;;5048002;28;19920;-50
2022/01/17 13:23:25;;;;;;;;;;;8.90;99.90;;;;;;5031277;28;19923;-50
2022/01/17 13:25:53;;;;;;;;;;;8.90;99.90;;;;;;5061703;28;19928;-50
2022/01/17 13:28:19;;;;;;;;;;;8.90;99.90;;;;;;5065299;28;20405;-50
2022/01/17 13:30:45;;;;;;;;;;;8.90;99.90;;;;;;5046724;28;20003;-50
2022/01/17 13:33:11;;;;;;;;;;;8.80;99.90;;;;;;5062108;28;19924;-52
2022/01/17 13:35:43;;;;;;;;;;;8.80;99.90;;;;;;5056494;28;19924;-52
2022/01/17 13:38:11;;;;;;;;;;;8.70;99.90;;;;;;5085264;28;19930;-51
2022/01/17 13:40:38;;;;;;;;;;;8.80;99.90;;;;;;5068646;28;20336;-49
2022/01/17 13:43:05;;;;;;;;;;;8.90;99.90;;;;;;5071807;28;20003;-52
2022/01/17 13:45:41;;;;;;;;;;;8.80;99.90;;;;;;5071813;28;20340;-48
2022/01/17 13:48:20;;;;;;;;;;;8.90;99.90;;;;;;5069268;28;19930;-47
2022/01/17 13:50:53;;;;;;;;;;;9.00;99.90;;;;;;5086332;28;19959;-50
2022/01/17 13:53:21;;;;;;;;;;;8.90;99.90;;;;;;5087779;28;19916;-51
2022/01/17 13:55:48;;;;;;;;;;;8.80;99.90;;;;;;5054393;28;20361;-50
2022/01/17 13:58:15;;;;;;;;;;;8.70;99.90;;;;;;5071339;28;20302;-48
2022/01/17 14:00:48;;;;;;;;;;;8.60;99.90;;;;;;5086045;28;19919;-54
2022/01/17 14:03:16;;;;;;;;;;;8.50;99.90;;;;;;5085856;28;19985;-50
2022/01/17 14:05:46;;;;;;;;;;;8.50;99.90;;;;;;5070224;28;19949;-48
2022/01/17 14:08:14;;;;;;;;;;;8.40;99.90;;;;;;5073315;28;19920;-48
2022/01/17 14:10:50;;;;;;;;;;;8.40;99.90;;;;;;5074926;28;20380;-50
2022/01/17 14:13:17;;;;;;;;;;;8.50;99.90;;;;;;5069855;28;20063;-51
2022/01/17 14:15:43;;;;;;;;;;;8.50;99.90;;;;;;5068193;28;20361;-50
2022/01/17 14:18:09;;;;;;;;;;;8.50;99.90;;;;;;5085163;28;19923;-50
2022/01/17 14:20:38;;;;;;;;;;;8.50;99.90;;;;;;5085370;28;19977;-50
2022/01/17 14:23:04;;;;;;;;;;;8.40;99.90;;;;;;5053042;28;19924;-50
2022/01/17 14:25:30;;;;;;;;;;;8.40;99.90;;;;;;5070293;28;19945;-49
2022/01/17 14:27:57;;;;;;;;;;;8.40;99.90;;;;;;5070600;28;19924;-51
2022/01/17 14:30:30;;;;;;;;;;;8.30;99.90;;;;;;5071218;28;19982;-50
2022/01/17 14:33:17;;;;;;;;;;;8.20;99.90;;;;;;5080687;28;19927;-51
2022/01/17 14:36:01;;;;;;;;;;;8.20;99.90;;;;;;5069525;28;19916;-52
2022/01/17 14:38:27;;;;;;;;;;;8.20;99.90;;;;;;5064982;28;20005;-53
2022/01/17 14:40:53;;;;;;;;;;;8.20;99.90;;;;;;5085811;28;19920;-50
2022/01/17 14:43:21;;;;;;;;;;;8.10;99.90;;;;;;5072685;28;19998;-48
2022/01/17 14:45:49;;;;;;;;;;;8.20;99.90;;;;;;5053376;28;19928;-53
2022/01/17 14:48:15;;;;;;;;;;;8.10;99.90;;;;;;5067129;28;19951;-51
2022/01/17 14:50:41;;;;;;;;;;;8.10;99.90;;;;;;5072165;28;19927;-49
2022/01/17 14:53:14;;;;;;;;;;;8.10;99.90;;;;;;5086681;28;20449;-49
2022/01/17 15:01:00;;;;;;;;;;;8.30;99.90;;;;;;5086260;28;20474;-53
2022/01/17 15:03:30;;;;;;;;;;;8.40;99.90;;;;;;5052362;28;19962;-49
2022/01/17 15:05:56;;;;;;;;;;;8.40;99.90;;;;;;5051623;28;19924;-51
2022/01/17 15:08:25;;;;;;;;;;;8.30;99.90;;;;;;5067832;28;19916;-53
2022/01/17 15:10:51;;;;;;;;;;;8.20;99.90;;;;;;5069820;28;19927;-52
2022/01/17 15:13:17;;;;;;;;;;;8.20;99.90;;;;;;5085142;28;19924;-50